»·PEaware :: AAL1919 KSFO-KPSP

AAL1919 :: KSFO-KPSP

FLIGHT INFORMATION

Flight Status: Arrived
Operator:
American Airlines
More flights by this operator :: More flights under this callsign
Pilot: Ryan L. (9775)
Aircraft: MCDONNELL-DOUGLAS MD-88
(MD88)
More flights by this aircraft type
Origin: KSFO San Francisco Intl
United States
Destination: KPSP Palm Springs Intl
United States
More flights between these airports :: More routes between these airports
Route: +SSTIK3 LOSHN CLASN SIZLR2
File this flight plan on PilotEdge
Remarks:
Altitude:
(Current/Filed)
33,000ft
Speed:
(Current/Filed)
450kts
Departed: 04-Oct-17 05:24 PM
Arrived: 04-Oct-17 06:29 PM
Distance/Time
Traveled:
365nm/1:04
Distance/Time
To Go:
Arrived

Flight Plot

Page will automatically refresh every two minutes.

Flight plan parsing failed; only flown route is shown


Map Options




Map Legend


Flown Route
Filed Route
Departure Airport
Arrival Airport
Navaid (VOR, NDB)
Fix

Horizontal Profiles

Position Reports

Time Latitude Longitude Heading Altitude Ground
Speed
04-Oct-17 16:45 37.617763 -122.382912 134 19ft 0kts
04-Oct-17 16:46 37.617763 -122.382912 134 19ft 0kts
04-Oct-17 16:47 37.617763 -122.382912 134 19ft 0kts
04-Oct-17 16:48 37.617763 -122.382912 134 19ft 0kts
04-Oct-17 16:49 37.617763 -122.382912 134 19ft 0kts
04-Oct-17 16:50 37.617763 -122.382912 134 19ft 0kts
04-Oct-17 16:51 37.617763 -122.382912 134 19ft 0kts
04-Oct-17 16:52 37.617763 -122.382912 134 19ft 0kts
04-Oct-17 16:53 37.617763 -122.382912 134 19ft 0kts
04-Oct-17 16:54 37.617763 -122.382912 134 19ft 0kts
04-Oct-17 16:55 37.617763 -122.382912 134 19ft 0kts
04-Oct-17 16:56 37.617763 -122.382912 134 19ft 0kts
04-Oct-17 16:57 37.617763 -122.382912 134 19ft 0kts
04-Oct-17 16:58 37.617763 -122.382912 134 19ft 0kts
04-Oct-17 16:59 37.617763 -122.382912 134 19ft 0kts
04-Oct-17 17:00 37.617763 -122.382912 134 19ft 0kts
04-Oct-17 17:01 37.617763 -122.382912 134 19ft 0kts
04-Oct-17 17:02 37.617763 -122.382912 134 19ft 0kts
04-Oct-17 17:03 37.617763 -122.382912 134 19ft 0kts
04-Oct-17 17:04 37.617763 -122.382912 134 19ft 0kts
04-Oct-17 17:05 37.617763 -122.382912 134 19ft 0kts
04-Oct-17 17:06 37.617763 -122.382912 134 19ft 0kts
04-Oct-17 17:07 37.617763 -122.382912 134 19ft 0kts
04-Oct-17 17:08 37.617763 -122.382912 134 19ft 0kts
04-Oct-17 17:09 37.617763 -122.382912 134 19ft 0kts
04-Oct-17 17:10 37.618070 -122.383168 115 19ft 2kts
04-Oct-17 17:11 37.617946 -122.383649 41 19ft 1kts
04-Oct-17 17:12 37.617943 -122.383653 41 19ft 0kts
04-Oct-17 17:13 37.617943 -122.383653 41 19ft 0kts
04-Oct-17 17:14 37.617943 -122.383653 41 19ft 0kts
04-Oct-17 17:15 37.617943 -122.383653 41 19ft 0kts
04-Oct-17 17:16 37.617943 -122.383653 41 19ft 0kts
04-Oct-17 17:17 37.617943 -122.383653 41 19ft 0kts
04-Oct-17 17:18 37.617943 -122.383653 41 19ft 0kts
04-Oct-17 17:19 37.617943 -122.383653 41 19ft 0kts
04-Oct-17 17:20 37.618042 -122.383557 34 19ft 3kts
04-Oct-17 17:21 37.619516 -122.381746 111 19ft 7kts
04-Oct-17 17:22 37.617768 -122.379437 170 19ft 13kts
04-Oct-17 17:23 37.613254 -122.381975 210 19ft 22kts
04-Oct-17 17:24 37.609072 -122.384694 172 19ft 0kts
04-Oct-17 17:25 37.608517 -122.383987 119 19ft 0kts
04-Oct-17 17:26 37.608517 -122.383987 119 19ft 0kts
04-Oct-17 17:27 37.608258 -122.383362 118 19ft 11kts
04-Oct-17 17:28 37.617457 -122.376618 27 19ft 122kts
04-Oct-17 17:29 37.654873 -122.346243 28 1637ft 168kts
04-Oct-17 17:30 37.696911 -122.341713 303 2971ft 203kts
04-Oct-17 17:31 37.669350 -122.410414 216 4691ft 269kts
04-Oct-17 17:32 37.599217 -122.448663 197 7411ft 286kts
04-Oct-17 17:33 37.520721 -122.468455 190 10052ft 294kts
04-Oct-17 17:34 37.449790 -122.423709 122 11532ft 340kts
04-Oct-17 17:35 37.391684 -122.325616 129 13192ft 365kts
04-Oct-17 17:36 37.326345 -122.225952 131 14897ft 379kts
04-Oct-17 17:37 37.258259 -122.122926 131 16548ft 388kts
04-Oct-17 17:38 37.189022 -122.018099 132 18173ft 397kts
04-Oct-17 17:39 37.117657 -121.909895 133 19801ft 411kts
04-Oct-17 17:40 37.043915 -121.797947 133 21316ft 424kts
04-Oct-17 17:41 36.968218 -121.682866 134 22715ft 437kts
04-Oct-17 17:42 36.890596 -121.564660 134 24051ft 449kts
04-Oct-17 17:43 36.811584 -121.444199 134 25317ft 459kts
04-Oct-17 17:44 36.730247 -121.319947 135 26491ft 469kts
04-Oct-17 17:45 36.647568 -121.193439 135 27532ft 477kts
04-Oct-17 17:46 36.563511 -121.064626 135 28433ft 486kts
04-Oct-17 17:47 36.478247 -120.933998 136 29232ft 492kts
04-Oct-17 17:48 36.390163 -120.804697 136 29971ft 498kts
04-Oct-17 17:49 36.300496 -120.672404 136 30533ft 505kts
04-Oct-17 17:50 36.210917 -120.539960 135 31176ft 507kts
04-Oct-17 17:51 36.122271 -120.408667 135 31821ft 508kts
04-Oct-17 17:52 36.032097 -120.274904 135 32398ft 508kts
04-Oct-17 17:53 35.942499 -120.141778 135 32904ft 508kts
04-Oct-17 17:54 35.871154 -120.035602 135 33043ft 504kts
04-Oct-17 17:55 35.799701 -119.893024 115 33068ft 521kts
04-Oct-17 17:56 35.741913 -119.730593 116 33051ft 520kts
04-Oct-17 17:57 35.685618 -119.573339 121 33043ft 502kts
04-Oct-17 17:58 35.613425 -119.433930 145 33059ft 471kts
04-Oct-17 17:59 35.528625 -119.325442 142 33046ft 476kts
04-Oct-17 18:00 35.439978 -119.206628 142 33044ft 474kts
04-Oct-17 18:01 35.361307 -119.100802 142 33010ft 460kts
04-Oct-17 18:02 35.273078 -118.985102 143 33058ft 472kts
04-Oct-17 18:03 35.183910 -118.868480 142 33056ft 471kts
04-Oct-17 18:04 35.095090 -118.751521 142 33154ft 468kts
04-Oct-17 18:05 35.007077 -118.635459 142 33155ft 467kts
04-Oct-17 18:06 34.919367 -118.519655 142 33156ft 466kts
04-Oct-17 18:07 34.841347 -118.416654 141 32393ft 469kts
04-Oct-17 18:08 34.759680 -118.305083 135 29716ft 469kts
04-Oct-17 18:09 34.681050 -118.182269 135 26825ft 467kts
04-Oct-17 18:10 34.600844 -118.058162 133 23238ft 470kts
04-Oct-17 18:11 34.538415 -117.926171 120 20660ft 433kts
04-Oct-17 18:12 34.487597 -117.801361 120 18768ft 402kts
04-Oct-17 18:13 34.438817 -117.682463 120 18168ft 396kts
04-Oct-17 18:14 34.389968 -117.563632 120 17599ft 396kts
04-Oct-17 18:15 34.341349 -117.444862 119 16849ft 393kts
04-Oct-17 18:16 34.293734 -117.329097 122 16118ft 382kts
04-Oct-17 18:17 34.241421 -117.217659 123 16118ft 383kts
04-Oct-17 18:18 34.189424 -117.107237 123 16111ft 383kts
04-Oct-17 18:19 34.136509 -116.994540 123 16099ft 383kts
04-Oct-17 18:20 34.085215 -116.885492 119 15449ft 367kts
04-Oct-17 18:21 34.036137 -116.779709 116 14306ft 357kts
04-Oct-17 18:22 34.004321 -116.666788 105 12833ft 355kts
04-Oct-17 18:23 33.974874 -116.557211 116 11186ft 332kts
04-Oct-17 18:24 33.914907 -116.480861 141 9839ft 306kts
04-Oct-17 18:25 33.856415 -116.419699 141 8429ft 253kts
04-Oct-17 18:26 33.806463 -116.370015 140 6692ft 225kts
04-Oct-17 18:27 33.759430 -116.327071 141 4993ft 200kts
04-Oct-17 18:28 33.717253 -116.326562 233 3702ft 174kts
04-Oct-17 18:29 33.720610 -116.378352 314 2467ft 170kts
04-Oct-17 18:30 33.752663 -116.418707 303 2523ft 164kts
04-Oct-17 18:31 33.775913 -116.461045 325 1345ft 147kts
04-Oct-17 18:32 33.809353 -116.489518 324 734ft 145kts
04-Oct-17 18:33 33.832987 -116.510629 316 483ft 16kts
04-Oct-17 18:34 33.831672 -116.511570 141 483ft 8kts
04-Oct-17 18:35 33.828806 -116.508947 139 483ft 17kts
04-Oct-17 18:36 33.825472 -116.506215 185 483ft 8kts
04-Oct-17 18:37 33.824056 -116.505810 208 483ft 2kts
04-Oct-17 18:38 33.823758 -116.506118 228 483ft 0kts
04-Oct-17 18:39 33.823758 -116.506118 228 483ft 0kts
04-Oct-17 18:40 33.823758 -116.506118 228 483ft 0kts

Navigation Log

Ident Type
Flight plan parsing failed, navigation log unavailable